Ace High — WQZ3340 — position and weather

sailwx.info

Track history (hours):
 
Tides and Currents Weather Stations Pressure Air Temp Water Temp Dewpoint Dewpoint Depression Visibility Wind Speed Wind Dir Waves Ship Positions

Ace High

Owner: C & C BOATS INC, HUNTINGTON BEACH, CA. More information available from US FCC via Universal Licensing System and Coast Guard Vessel Documentation Center.

Last reported at 2018-Feb-25 14:58 UTC. Time now 2018-Feb-25 15:34 UTC.
Position N 34°23' W 120°10'.

Length 96 m.

Type: Passenger vessel. MMSI: 367394750.

Date/timePositionNaut miles runAvg speedWind from/ knotsBaromVisibWave heightAir tempDewpointWater temp
2018-Feb-25 14:58N 34°23' W 120°10'2 4.0
2018-Feb-25 14:23N 34°23' W 120°07'0 0.1
2018-Feb-25 13:56N 34°23' W 120°07'1011.6
2018-Feb-25 13:05N 34°26' W 119°55'0 0.0
2018-Feb-25 12:58N 34°26' W 119°55'811.7
2018-Feb-25 12:18N 34°24' W 120°05'2 6.3
2018-Feb-25 11:58N 34°23' W 120°07'0 0.0
2018-Feb-25 11:28N 34°23' W 120°07'0 0.0
2018-Feb-25 10:58N 34°23' W 120°07'0 0.0
2018-Feb-25 10:28N 34°23' W 120°07'0 0.1
2018-Feb-25 09:58N 34°23' W 120°07'0 0.1
2018-Feb-25 09:28N 34°23' W 120°07'0 0.0
2018-Feb-25 08:58N 34°23' W 120°07'0 0.0
2018-Feb-25 08:28N 34°23' W 120°07'0 0.0
2018-Feb-25 07:58N 34°23' W 120°07'0 0.0
2018-Feb-25 07:28N 34°23' W 120°07'0 0.0
2018-Feb-25 06:55N 34°23' W 120°07'0 0.1
2018-Feb-25 06:28N 34°23' W 120°07'0 0.1
2018-Feb-25 05:40N 34°23' W 120°07'0 0.1
2018-Feb-25 05:19N 34°23' W 120°07'0 0.0
2018-Feb-25 05:00N 34°23' W 120°07'0 0.1
2018-Feb-25 04:29N 34°23' W 120°07'0 0.1
2018-Feb-25 03:59N 34°23' W 120°07'0 0.0
2018-Feb-25 03:29N 34°23' W 120°07'0 0.0
2018-Feb-25 02:46N 34°23' W 120°07'0 0.0
2018-Feb-25 02:29N 34°23' W 120°07'0 0.0
2018-Feb-25 01:57N 34°23' W 120°07'0 0.0
2018-Feb-25 01:25N 34°23' W 120°07'0 0.0
2018-Feb-25 00:58N 34°23' W 120°07'0 0.0
2018-Feb-25 00:27N 34°23' W 120°07'0 0.1
2018-Feb-25 00:00N 34°23' W 120°07'911.0
2018-Feb-24 23:13N 34°25' W 119°57'2 0.2
2018-Feb-24 16:21N 34°26' W 119°55'0 0.0
2018-Feb-24 11:52N 34°26' W 119°55'0 0.0
2018-Feb-24 11:21N 34°26' W 119°55'0 0.0
2018-Feb-24 05:13N 34°26' W 119°55'0 0.0
2018-Feb-24 02:24N 34°26' W 119°55'0 0.6
2018-Feb-24 02:00N 34°26' W 119°56'712.4
2018-Feb-24 01:24N 34°23' W 120°04'3 7.6
2018-Feb-24 00:58N 34°23' W 120°08'2 3.1
2018-Feb-24 00:29N 34°22' W 120°10'0 0.0
2018-Feb-23 23:59N 34°22' W 120°10'0 0.0
2018-Feb-23 23:30N 34°22' W 120°10'0 0.0
2018-Feb-23 23:00N 34°22' W 120°10'0 0.0
2018-Feb-23 22:30N 34°22' W 120°10'0 0.0
2018-Feb-23 21:58N 34°22' W 120°10'0 0.0
2018-Feb-23 21:30N 34°22' W 120°10'1 1.3
2018-Feb-23 21:00N 34°22' W 120°11'5 9.4
2018-Feb-23 20:30N 34°21' W 120°16'713.7
2018-Feb-23 19:58N 34°22' W 120°07'713.6
2018-Feb-23 19:27N 34°24' W 119°59'2 5.3
2018-Feb-23 19:00N 34°25' W 119°56'612.6
2018-Feb-23 18:30N 34°23' W 120°03'510.4
2018-Feb-23 18:00N 34°22' W 120°10'0 0.0
2018-Feb-23 17:30N 34°22' W 120°10'2 4.4
2018-Feb-23 16:58N 34°23' W 120°07'511.3
2018-Feb-23 16:30N 34°22' W 120°13'3 5.5
2018-Feb-23 15:56N 34°21' W 120°17'3 6.1
2018-Feb-23 15:30N 34°22' W 120°14'510.8
2018-Feb-23 15:00N 34°23' W 120°08'0 0.8
2018-Feb-23 14:30N 34°23' W 120°07'0 0.0
2018-Feb-23 13:59N 34°23' W 120°07'0 0.0
2018-Feb-23 13:30N 34°23' W 120°07'0 0.0
2018-Feb-23 13:00N 34°23' W 120°07'0 0.0
2018-Feb-23 12:30N 34°23' W 120°07'0 0.0
2018-Feb-23 12:00N 34°23' W 120°07'0 0.0
2018-Feb-23 11:29N 34°23' W 120°07'0 0.0
2018-Feb-23 10:59N 34°23' W 120°07'0 0.0
2018-Feb-23 10:29N 34°23' W 120°07'0 0.0
2018-Feb-23 09:58N 34°23' W 120°07'0 0.0
2018-Feb-23 09:29N 34°23' W 120°07'0 0.0
2018-Feb-23 08:59N 34°23' W 120°07'0 0.0
2018-Feb-23 08:26N 34°23' W 120°07'0 0.0
2018-Feb-23 07:56N 34°23' W 120°07'0 0.0
2018-Feb-23 07:30N 34°23' W 120°07'0 0.0
2018-Feb-23 07:00N 34°23' W 120°07'0 0.0
2018-Feb-23 06:30N 34°23' W 120°07'0 0.0
2018-Feb-23 06:00N 34°23' W 120°07'0 0.0
2018-Feb-23 05:28N 34°23' W 120°07'0 0.0
2018-Feb-23 05:00N 34°23' W 120°07'0 0.0
2018-Feb-23 04:30N 34°23' W 120°07'0 0.0
2018-Feb-23 04:00N 34°23' W 120°07'0 0.0
2018-Feb-23 03:29N 34°23' W 120°07'1 2.4
2018-Feb-23 03:00N 34°24' W 120°06'8 9.9
2018-Feb-23 02:09N 34°25' W 119°56'612.9
2018-Feb-23 01:40N 34°23' W 120°03'214.0
2018-Feb-23 01:30N 34°23' W 120°06'4 5.8
2018-Feb-23 00:53N 34°23' W 120°10'411.7
2018-Feb-23 00:30N 34°21' W 120°15'1 2.0
2018-Feb-23 00:00N 34°21' W 120°14'4 6.8
2018-Feb-22 23:28N 34°22' W 120°10'0 0.0
2018-Feb-22 22:58N 34°22' W 120°10'0 0.0
2018-Feb-22 22:29N 34°22' W 120°10'0 0.0
2018-Feb-22 21:16N 34°22' W 120°10'0 0.0
2018-Feb-22 20:58N 34°22' W 120°10'0 0.0
2018-Feb-22 20:30N 34°22' W 120°10'0 0.0
2018-Feb-22 19:54N 34°22' W 120°10'1 3.6
2018-Feb-22 19:30N 34°23' W 120°08'2 4.8
2018-Feb-22 19:00N 34°24' W 120°05'714.1
2018-Feb-22 18:29N 34°24' W 119°57'2 3.0
2018-Feb-22 17:56N 34°26' W 119°55'5 9.9
2018-Feb-22 17:28N 34°23' W 120°00'612.3
2018-Feb-22 17:00N 34°23' W 120°07'1 2.7
2018-Feb-22 16:30N 34°22' W 120°07'713.2
2018-Feb-22 16:00N 34°21' W 120°15'1 1.4
2018-Feb-22 15:30N 34°22' W 120°14'611.2
2018-Feb-22 15:00N 34°23' W 120°08'0 0.9
2018-Feb-22 14:30N 34°23' W 120°07'0 0.0
2018-Feb-22 14:00N 34°23' W 120°07'0 0.0
2018-Feb-22 13:30N 34°23' W 120°07'0 0.0
2018-Feb-22 12:58N 34°23' W 120°07'0 0.1
2018-Feb-22 12:26N 34°23' W 120°07'0 0.0
2018-Feb-22 12:00N 34°23' W 120°07'0 0.0
2018-Feb-22 11:30N 34°23' W 120°07'0 0.0
2018-Feb-22 11:00N 34°23' W 120°07'0 0.0
2018-Feb-22 10:30N 34°23' W 120°07'0 0.0
2018-Feb-22 10:00N 34°23' W 120°07'0 0.0
2018-Feb-22 09:30N 34°23' W 120°07'0 0.0
2018-Feb-22 09:00N 34°23' W 120°07'0 0.0
2018-Feb-22 08:30N 34°23' W 120°07'0 0.0
2018-Feb-22 07:56N 34°23' W 120°07'0 0.0
2018-Feb-22 07:29N 34°23' W 120°07'0 0.1
2018-Feb-22 06:55N 34°23' W 120°07'0 0.0
2018-Feb-22 06:28N 34°23' W 120°07'0 0.0
2018-Feb-22 05:58N 34°23' W 120°07'0 0.0
2018-Feb-22 05:27N 34°23' W 120°07'0 0.0
2018-Feb-22 05:00N 34°23' W 120°07'0 0.0
2018-Feb-22 04:30N 34°23' W 120°07'0 0.0
2018-Feb-22 04:00N 34°23' W 120°07'0 0.1
2018-Feb-22 03:21N 34°23' W 120°07'0 0.1
2018-Feb-22 02:57N 34°23' W 120°07'0 0.0
2018-Feb-22 02:27N 34°23' W 120°07'0 0.0
2018-Feb-22 02:00N 34°23' W 120°07'0 0.0
2018-Feb-22 01:12N 34°23' W 120°07'0 0.2
2018-Feb-22 01:00N 34°23' W 120°07'3 5.0
2018-Feb-22 00:26N 34°22' W 120°10'512.7
2018-Feb-22 00:00N 34°21' W 120°17'510.3
2018-Feb-21 23:30N 34°22' W 120°11'1 1.7
2018-Feb-21 23:00N 34°22' W 120°10'0 0.0
2018-Feb-21 22:26N 34°22' W 120°10'0 0.0
2018-Feb-21 21:59N 34°22' W 120°10'0 0.0
2018-Feb-21 21:28N 34°22' W 120°10'0 0.1
2018-Feb-21 21:00N 34°22' W 120°10'0 0.0
2018-Feb-21 20:29N 34°22' W 120°10'0 0.0
2018-Feb-21 19:56N 34°22' W 120°10'0 0.0
2018-Feb-21 19:26N 34°22' W 120°10'3 6.1
2018-Feb-21 19:00N 34°23' W 120°07'1013.2
2018-Feb-21 18:16N 34°26' W 119°55'0 0.6
2018-Feb-21 17:55N 34°26' W 119°55'2 3.0
2018-Feb-21 17:24N 34°24' W 119°56'613.7
2018-Feb-21 16:59N 34°23' W 120°03'3 4.2
2018-Feb-21 16:12N 34°23' W 120°07'0 0.2
2018-Feb-21 15:54N 34°23' W 120°07'0 0.0
2018-Feb-21 15:28N 34°23' W 120°07'3 5.6
2018-Feb-21 15:00N 34°23' W 120°10'2 4.6
2018-Feb-21 14:28N 34°23' W 120°07'910.1
2018-Feb-21 13:36N 34°25' W 119°57'1 5.2
2018-Feb-21 13:20N 34°26' W 119°55'4 8.7
2018-Feb-21 12:54N 34°24' W 119°59'513.3
2018-Feb-21 12:30N 34°23' W 120°06'1 2.1
2018-Feb-21 11:59N 34°23' W 120°07'0 0.1
2018-Feb-21 11:30N 34°23' W 120°07'0 0.0
2018-Feb-21 11:00N 34°23' W 120°07'0 0.0
2018-Feb-21 10:30N 34°23' W 120°07'0 0.0
2018-Feb-21 09:57N 34°23' W 120°07'0 0.0
2018-Feb-21 09:30N 34°23' W 120°07'0 0.0
2018-Feb-21 08:59N 34°23' W 120°07'0 0.0
2018-Feb-21 08:23N 34°23' W 120°07'0 0.0
2018-Feb-21 07:54N 34°23' W 120°07'0 0.0
2018-Feb-21 07:30N 34°23' W 120°07'0 0.0
2018-Feb-21 06:57N 34°23' W 120°07'0 0.1
2018-Feb-21 06:30N 34°23' W 120°07'0 0.0
2018-Feb-21 06:00N 34°23' W 120°07'0 0.0
2018-Feb-21 05:24N 34°23' W 120°07'0 0.0
2018-Feb-21 05:00N 34°23' W 120°07'0 0.0
2018-Feb-21 03:56N 34°23' W 120°07'0 0.0
2018-Feb-21 03:29N 34°23' W 120°07'0 0.1
2018-Feb-21 02:53N 34°23' W 120°07'0 0.0
2018-Feb-21 02:23N 34°23' W 120°07'0 0.7
2018-Feb-21 02:00N 34°23' W 120°07'2 4.6
2018-Feb-21 01:30N 34°22' W 120°10'1 2.7
2018-Feb-21 01:00N 34°23' W 120°08'1 2.2
2018-Feb-21 00:30N 34°23' W 120°07'6 9.2
2018-Feb-20 23:53N 34°24' W 120°00'410.2
2018-Feb-20 23:29N 34°26' W 119°55'0 0.4
2018-Feb-20 22:50N 34°26' W 119°55'0 0.0
2018-Feb-20 17:13N 34°26' W 119°55'210.2
2018-Feb-20 16:59N 34°23' W 119°57'713.8
2018-Feb-20 16:29N 34°21' W 120°05'714.0
2018-Feb-20 16:00N 34°21' W 120°13'3 6.4
2018-Feb-20 15:30N 34°21' W 120°17'713.7
2018-Feb-20 15:00N 34°23' W 120°08'1 2.3
2018-Feb-20 14:29N 34°23' W 120°07'1 2.9
2018-Feb-20 14:00N 34°24' W 120°05'612.0
2018-Feb-20 13:30N 34°24' W 119°58'3 5.2
2018-Feb-20 12:58N 34°26' W 119°55'0 0.0
2018-Feb-20 02:30N 34°26' W 119°55'0 0.0
2018-Feb-20 01:05N 34°26' W 119°55'110.8
2018-Feb-20 00:59N 34°25' W 119°56'714.0
2018-Feb-20 00:29N 34°23' W 120°04'0 0.5
2018-Feb-19 23:58N 34°23' W 120°04'711.3
2018-Feb-19 23:19N 34°26' W 119°55'5 9.2
2018-Feb-19 22:48N 34°24' W 120°01'414.2
2018-Feb-19 22:30N 34°23' W 120°06'4 7.5
2018-Feb-19 22:00N 34°23' W 120°10'0 0.4
2018-Feb-19 21:22N 34°22' W 120°10'0 0.2
2018-Feb-19 21:00N 34°22' W 120°10'0 0.0
2018-Feb-19 20:30N 34°22' W 120°10'0 0.0
2018-Feb-19 19:58N 34°22' W 120°10'0 0.0
2018-Feb-19 19:30N 34°22' W 120°10'6 9.8
2018-Feb-19 18:56N 34°23' W 120°03'710.3
2018-Feb-19 18:16N 34°26' W 119°55'0 0.1
2018-Feb-19 17:46N 34°26' W 119°55'0 0.2
2018-Feb-19 17:30N 34°26' W 119°55'2 3.9
2018-Feb-19 16:54N 34°24' W 119°57'513.3
2018-Feb-19 16:30N 34°23' W 120°03'713.4
2018-Feb-19 15:59N 34°22' W 120°12'2 3.7
2018-Feb-19 15:29N 34°21' W 120°14'5 8.9
2018-Feb-19 14:59N 34°23' W 120°09'1 3.1
2018-Feb-19 14:30N 34°23' W 120°07'0 0.0
2018-Feb-19 14:00N 34°23' W 120°07'0 0.0
2018-Feb-19 13:29N 34°23' W 120°07'0 0.0
2018-Feb-19 13:00N 34°23' W 120°07'0 0.0
2018-Feb-19 12:29N 34°23' W 120°07'0 0.0
2018-Feb-19 11:59N 34°23' W 120°07'0 0.0
2018-Feb-19 11:30N 34°23' W 120°07'0 0.0
2018-Feb-19 10:54N 34°23' W 120°07'0 0.0
2018-Feb-19 10:30N 34°23' W 120°07'0 0.0
2018-Feb-19 10:00N 34°23' W 120°07'0 0.0
2018-Feb-19 09:30N 34°23' W 120°07'0 0.0
2018-Feb-19 08:58N 34°23' W 120°07'0 0.0
2018-Feb-19 08:30N 34°23' W 120°07'0 0.0
2018-Feb-19 08:00N 34°23' W 120°07'0 0.0
2018-Feb-19 07:30N 34°23' W 120°07'0 0.0
2018-Feb-19 07:00N 34°23' W 120°07'0 0.0
2018-Feb-19 06:30N 34°23' W 120°07'0 0.0
2018-Feb-19 06:00N 34°23' W 120°07'0 0.0
2018-Feb-19 05:30N 34°23' W 120°07'0 0.0
2018-Feb-19 04:59N 34°23' W 120°07'0 0.0
2018-Feb-19 04:30N 34°23' W 120°07'0 0.0
2018-Feb-19 04:00N 34°23' W 120°07'0 0.0
2018-Feb-19 03:30N 34°23' W 120°07'0 0.0
2018-Feb-19 03:00N 34°23' W 120°07'0 0.0
2018-Feb-19 02:30N 34°23' W 120°07'0 0.1
2018-Feb-19 02:00N 34°23' W 120°07'611.6
2018-Feb-19 01:30N 34°24' W 120°00'4 6.6
2018-Feb-19 00:56N 34°25' W 119°56'613.2
2018-Feb-19 00:29N 34°23' W 120°03'4 9.2
2018-Feb-19 00:00N 34°23' W 120°08'1 2.9
2018-Feb-18 23:29N 34°22' W 120°10'0 0.0
2018-Feb-18 23:00N 34°22' W 120°10'0 0.0
2018-Feb-18 22:29N 34°22' W 120°10'0 0.0
2018-Feb-18 21:56N 34°22' W 120°10'0 0.0
2018-Feb-18 21:30N 34°22' W 120°10'0 0.0
2018-Feb-18 20:55N 34°22' W 120°10'0 0.0
2018-Feb-18 20:30N 34°22' W 120°10'0 0.0
2018-Feb-18 19:58N 34°22' W 120°10'0 0.1
2018-Feb-18 19:22N 34°22' W 120°10'2 5.2
2018-Feb-18 19:00N 34°23' W 120°08'713.4
2018-Feb-18 18:30N 34°21' W 120°15'4 7.1
2018-Feb-18 18:00N 34°22' W 120°11'1 1.9
2018-Feb-18 17:27N 34°22' W 120°10'0 0.0
2018-Feb-18 17:00N 34°22' W 120°10'0 0.0
2018-Feb-18 16:30N 34°22' W 120°10'3 5.9
2018-Feb-18 16:00N 34°21' W 120°13'0 0.7
2018-Feb-18 15:30N 34°22' W 120°13'4 8.8
2018-Feb-18 15:00N 34°23' W 120°08'1 1.4
2018-Feb-18 14:28N 34°23' W 120°07'0 0.0
2018-Feb-18 13:58N 34°23' W 120°07'0 0.0
2018-Feb-18 13:30N 34°23' W 120°07'0 0.0
2018-Feb-18 12:57N 34°23' W 120°07'0 0.0
2018-Feb-18 12:30N 34°23' W 120°07'0 0.0
2018-Feb-18 11:51N 34°23' W 120°07'0 0.0
2018-Feb-18 11:30N 34°23' W 120°07'0 0.0
2018-Feb-18 11:00N 34°23' W 120°07'0 0.0
2018-Feb-18 10:30N 34°23' W 120°07'0 0.0
2018-Feb-18 10:00N 34°23' W 120°07'0 0.1
2018-Feb-18 09:30N 34°23' W 120°07'0 0.0
2018-Feb-18 09:00N 34°23' W 120°07'0 0.0
2018-Feb-18 08:30N 34°23' W 120°07'0 0.0
2018-Feb-18 08:00N 34°23' W 120°07'0 0.0
2018-Feb-18 07:30N 34°23' W 120°07'0 0.0
2018-Feb-18 06:58N 34°23' W 120°07'0 0.0
2018-Feb-18 06:28N 34°23' W 120°07'0 0.0
2018-Feb-18 05:58N 34°23' W 120°07'0 0.0
2018-Feb-18 05:28N 34°23' W 120°07'0 0.0
2018-Feb-18 04:58N 34°23' W 120°07'0 0.0
2018-Feb-18 04:28N 34°23' W 120°07'0 0.0
2018-Feb-18 03:58N 34°23' W 120°07'0 0.0
2018-Feb-18 03:28N 34°23' W 120°07'0 0.0
2018-Feb-18 02:58N 34°23' W 120°07'0 0.0
2018-Feb-18 02:28N 34°23' W 120°07'0 0.0
2018-Feb-18 01:58N 34°23' W 120°07'0 0.0
2018-Feb-18 01:28N 34°23' W 120°07'0 0.0
2018-Feb-18 00:58N 34°23' W 120°07'0 0.0
2018-Feb-18 00:30N 34°23' W 120°07'711.4
2018-Feb-17 23:53N 34°24' W 119°59'3 7.7
2018-Feb-17 23:29N 34°26' W 119°55'0 0.1
2018-Feb-17 22:29N 34°26' W 119°55'0 0.0
2018-Feb-17 21:56N 34°26' W 119°55'0 0.0
2018-Feb-17 21:11N 34°26' W 119°55'0 0.0
2018-Feb-17 20:53N 34°26' W 119°55'0 0.0
2018-Feb-17 20:29N 34°26' W 119°55'0 0.0
2018-Feb-17 19:59N 34°26' W 119°55'0 0.0
2018-Feb-17 18:20N 34°26' W 119°55'0 0.0
2018-Feb-17 17:50N 34°26' W 119°55'3 8.4
2018-Feb-17 17:25N 34°24' W 119°59'613.3
2018-Feb-17 17:00N 34°24' W 120°06'1 2.3
2018-Feb-17 16:30N 34°23' W 120°07'510.2
2018-Feb-17 16:00N 34°22' W 120°13'0 0.7
2018-Feb-17 15:30N 34°22' W 120°14'5 9.7
2018-Feb-17 14:59N 34°23' W 120°08'1 1.1
2018-Feb-17 14:28N 34°23' W 120°07'0 0.1
2018-Feb-17 14:00N 34°23' W 120°07'713.9
2018-Feb-17 13:28N 34°24' W 119°58'2 4.4
2018-Feb-17 12:57N 34°25' W 119°56'713.1
2018-Feb-17 12:26N 34°24' W 120°04'3 6.8
2018-Feb-17 12:00N 34°23' W 120°07'0 0.0
2018-Feb-17 11:30N 34°23' W 120°07'0 0.0
2018-Feb-17 10:57N 34°23' W 120°07'0 0.0
2018-Feb-17 10:30N 34°23' W 120°07'0 0.0
2018-Feb-17 10:00N 34°23' W 120°07'0 0.0
2018-Feb-17 09:30N 34°23' W 120°07'0 0.0
2018-Feb-17 09:00N 34°23' W 120°07'0 0.0
2018-Feb-17 08:30N 34°23' W 120°07'0 0.0
2018-Feb-17 07:51N 34°23' W 120°07'0 0.0
2018-Feb-17 07:30N 34°23' W 120°07'0 0.0
2018-Feb-17 07:00N 34°23' W 120°07'0 0.0
2018-Feb-17 06:30N 34°23' W 120°07'0 0.1
2018-Feb-17 06:00N 34°23' W 120°07'0 0.1
2018-Feb-17 05:26N 34°23' W 120°07'0 0.1
2018-Feb-17 04:59N 34°23' W 120°07'0 0.0
2018-Feb-17 04:29N 34°23' W 120°07'0 0.1
2018-Feb-17 03:59N 34°23' W 120°07'0 0.0
2018-Feb-17 03:29N 34°23' W 120°07'0 0.0
2018-Feb-17 03:00N 34°23' W 120°07'0 0.0
2018-Feb-17 02:28N 34°23' W 120°07'0 0.0
2018-Feb-17 02:00N 34°23' W 120°07'0 0.1
2018-Feb-17 01:29N 34°23' W 120°07'3 4.8
2018-Feb-17 00:57N 34°23' W 120°10'610.3
2018-Feb-17 00:23N 34°21' W 120°17'510.1
2018-Feb-16 23:52N 34°22' W 120°11'1 1.7
2018-Feb-16 23:28N 34°22' W 120°10'0 0.1
2018-Feb-16 22:53N 34°22' W 120°10'0 0.9
2018-Feb-16 22:26N 34°23' W 120°10'611.3
2018-Feb-16 21:55N 34°21' W 120°17'612.6
2018-Feb-16 21:28N 34°23' W 120°10'0 0.0
2018-Feb-16 21:00N 34°22' W 120°10'0 0.0
2018-Feb-16 19:27N 34°23' W 120°10'0 0.0
2018-Feb-16 19:00N 34°23' W 120°10'0 0.0
2018-Feb-16 18:30N 34°23' W 120°10'0 0.0
2018-Feb-16 18:00N 34°23' W 120°10'0 0.1
2018-Feb-16 16:54N 34°22' W 120°10'0 0.0
2018-Feb-16 16:22N 34°22' W 120°10'512.2
2018-Feb-16 15:57N 34°21' W 120°16'1 2.3
2018-Feb-16 15:30N 34°21' W 120°15'5 9.1
2018-Feb-16 15:00N 34°23' W 120°09'2 3.9
2018-Feb-16 14:30N 34°23' W 120°07'0 0.0
2018-Feb-16 14:00N 34°23' W 120°07'0 0.0
2018-Feb-16 13:30N 34°23' W 120°07'0 0.0
2018-Feb-16 12:58N 34°23' W 120°07'0 0.0
2018-Feb-16 12:28N 34°23' W 120°07'0 0.0
2018-Feb-16 11:58N 34°23' W 120°07'0 0.0
2018-Feb-16 11:28N 34°23' W 120°07'0 0.0
2018-Feb-16 10:57N 34°23' W 120°07'0 0.0
2018-Feb-16 10:30N 34°23' W 120°07'0 0.0
2018-Feb-16 10:00N 34°23' W 120°07'0 0.0
2018-Feb-16 09:27N 34°23' W 120°07'0 0.0
2018-Feb-16 08:57N 34°23' W 120°07'0 0.0
2018-Feb-16 08:30N 34°23' W 120°07'0 0.0
2018-Feb-16 08:00N 34°23' W 120°07'0 0.0
2018-Feb-16 07:23N 34°23' W 120°07'0 0.0
2018-Feb-16 06:59N 34°23' W 120°07'0 0.1
2018-Feb-16 06:26N 34°23' W 120°07'0 0.1
2018-Feb-16 05:59N 34°23' W 120°07'0 0.0
2018-Feb-16 05:29N 34°23' W 120°07'0 0.0
2018-Feb-16 04:53N 34°23' W 120°07'0 0.0
2018-Feb-16 04:29N 34°23' W 120°07'0 0.0
2018-Feb-16 03:59N 34°23' W 120°07'0 0.0
2018-Feb-16 03:29N 34°23' W 120°07'0 0.0
2018-Feb-16 02:56N 34°23' W 120°07'0 0.0
2018-Feb-16 02:29N 34°23' W 120°07'0 0.0
2018-Feb-16 01:59N 34°23' W 120°07'0 0.0
2018-Feb-16 01:29N 34°23' W 120°07'0 0.0
2018-Feb-16 00:50N 34°23' W 120°07'1 4.5
2018-Feb-16 00:30N 34°23' W 120°05'713.8
2018-Feb-15 23:58N 34°24' W 119°57'2 0.4
2018-Feb-15 19:21N 34°26' W 119°55'0 0.2
2018-Feb-15 18:16N 34°26' W 119°55'0 0.0
2018-Feb-15 17:59N 34°26' W 119°55'510.8
2018-Feb-15 17:30N 34°24' W 120°01'610.8
2018-Feb-15 17:00N 34°23' W 120°08'612.8
2018-Feb-15 16:30N 34°21' W 120°15'1 2.7
2018-Feb-15 16:00N 34°21' W 120°17'5 9.7
2018-Feb-15 15:30N 34°22' W 120°11'3 6.5
2018-Feb-15 14:59N 34°23' W 120°07'  
Track history (hours):
 
Tides and Currents Weather Stations Pressure Air Temp Water Temp Dewpoint Dewpoint Depression Visibility Wind Speed Wind Dir Waves Ship Positions

Ace High

Owner: C & C BOATS INC, HUNTINGTON BEACH, CA. More information available from US FCC via Universal Licensing System and Coast Guard Vessel Documentation Center.

Last reported at 2018-Feb-25 14:58 UTC. Time now 2018-Feb-25 15:34 UTC.
Position N 34°23' W 120°10'.

Length 96 m.

Type: Passenger vessel. MMSI: 367394750.

Date/timePositionNaut miles runAvg speedWind from/ knotsBaromVisibWave heightAir tempDewpointWater temp
2018-Feb-25 14:58N 34°23' W 120°10'2 4.0
2018-Feb-25 14:23N 34°23' W 120°07'0 0.1
2018-Feb-25 13:56N 34°23' W 120°07'1011.6
2018-Feb-25 13:05N 34°26' W 119°55'0 0.0
2018-Feb-25 12:58N 34°26' W 119°55'811.7
2018-Feb-25 12:18N 34°24' W 120°05'2 6.3
2018-Feb-25 11:58N 34°23' W 120°07'0 0.0
2018-Feb-25 11:28N 34°23' W 120°07'0 0.0
2018-Feb-25 10:58N 34°23' W 120°07'0 0.0
2018-Feb-25 10:28N 34°23' W 120°07'0 0.1
2018-Feb-25 09:58N 34°23' W 120°07'0 0.1
2018-Feb-25 09:28N 34°23' W 120°07'0 0.0
2018-Feb-25 08:58N 34°23' W 120°07'0 0.0
2018-Feb-25 08:28N 34°23' W 120°07'0 0.0
2018-Feb-25 07:58N 34°23' W 120°07'0 0.0
2018-Feb-25 07:28N 34°23' W 120°07'0 0.0
2018-Feb-25 06:55N 34°23' W 120°07'0 0.1
2018-Feb-25 06:28N 34°23' W 120°07'0 0.1
2018-Feb-25 05:40N 34°23' W 120°07'0 0.1
2018-Feb-25 05:19N 34°23' W 120°07'0 0.0
2018-Feb-25 05:00N 34°23' W 120°07'0 0.1
2018-Feb-25 04:29N 34°23' W 120°07'0 0.1
2018-Feb-25 03:59N 34°23' W 120°07'0 0.0
2018-Feb-25 03:29N 34°23' W 120°07'0 0.0
2018-Feb-25 02:46N 34°23' W 120°07'0 0.0
2018-Feb-25 02:29N 34°23' W 120°07'0 0.0
2018-Feb-25 01:57N 34°23' W 120°07'0 0.0
2018-Feb-25 01:25N 34°23' W 120°07'0 0.0
2018-Feb-25 00:58N 34°23' W 120°07'0 0.0
2018-Feb-25 00:27N 34°23' W 120°07'0 0.1
2018-Feb-25 00:00N 34°23' W 120°07'911.0
2018-Feb-24 23:13N 34°25' W 119°57'2 0.2
2018-Feb-24 16:21N 34°26' W 119°55'0 0.0
2018-Feb-24 11:52N 34°26' W 119°55'0 0.0
2018-Feb-24 11:21N 34°26' W 119°55'0 0.0
2018-Feb-24 05:13N 34°26' W 119°55'0 0.0
2018-Feb-24 02:24N 34°26' W 119°55'0 0.6
2018-Feb-24 02:00N 34°26' W 119°56'712.4
2018-Feb-24 01:24N 34°23' W 120°04'3 7.6
2018-Feb-24 00:58N 34°23' W 120°08'2 3.1
2018-Feb-24 00:29N 34°22' W 120°10'0 0.0
2018-Feb-23 23:59N 34°22' W 120°10'0 0.0
2018-Feb-23 23:30N 34°22' W 120°10'0 0.0
2018-Feb-23 23:00N 34°22' W 120°10'0 0.0
2018-Feb-23 22:30N 34°22' W 120°10'0 0.0
2018-Feb-23 21:58N 34°22' W 120°10'0 0.0
2018-Feb-23 21:30N 34°22' W 120°10'1 1.3
2018-Feb-23 21:00N 34°22' W 120°11'5 9.4
2018-Feb-23 20:30N 34°21' W 120°16'713.7
2018-Feb-23 19:58N 34°22' W 120°07'713.6
2018-Feb-23 19:27N 34°24' W 119°59'2 5.3
2018-Feb-23 19:00N 34°25' W 119°56'612.6
2018-Feb-23 18:30N 34°23' W 120°03'510.4
2018-Feb-23 18:00N 34°22' W 120°10'0 0.0
2018-Feb-23 17:30N 34°22' W 120°10'2 4.4
2018-Feb-23 16:58N 34°23' W 120°07'511.3
2018-Feb-23 16:30N 34°22' W 120°13'3 5.5
2018-Feb-23 15:56N 34°21' W 120°17'3 6.1
2018-Feb-23 15:30N 34°22' W 120°14'510.8
2018-Feb-23 15:00N 34°23' W 120°08'0 0.8
2018-Feb-23 14:30N 34°23' W 120°07'0 0.0
2018-Feb-23 13:59N 34°23' W 120°07'0 0.0
2018-Feb-23 13:30N 34°23' W 120°07'0 0.0
2018-Feb-23 13:00N 34°23' W 120°07'0 0.0
2018-Feb-23 12:30N 34°23' W 120°07'0 0.0
2018-Feb-23 12:00N 34°23' W 120°07'0 0.0
2018-Feb-23 11:29N 34°23' W 120°07'0 0.0
2018-Feb-23 10:59N 34°23' W 120°07'0 0.0
2018-Feb-23 10:29N 34°23' W 120°07'0 0.0
2018-Feb-23 09:58N 34°23' W 120°07'0 0.0
2018-Feb-23 09:29N 34°23' W 120°07'0 0.0
2018-Feb-23 08:59N 34°23' W 120°07'0 0.0
2018-Feb-23 08:26N 34°23' W 120°07'0 0.0
2018-Feb-23 07:56N 34°23' W 120°07'0 0.0
2018-Feb-23 07:30N 34°23' W 120°07'0 0.0
2018-Feb-23 07:00N 34°23' W 120°07'0 0.0
2018-Feb-23 06:30N 34°23' W 120°07'0 0.0
2018-Feb-23 06:00N 34°23' W 120°07'0 0.0
2018-Feb-23 05:28N 34°23' W 120°07'0 0.0
2018-Feb-23 05:00N 34°23' W 120°07'0 0.0
2018-Feb-23 04:30N 34°23' W 120°07'0 0.0
2018-Feb-23 04:00N 34°23' W 120°07'0 0.0
2018-Feb-23 03:29N 34°23' W 120°07'1 2.4
2018-Feb-23 03:00N 34°24' W 120°06'8 9.9
2018-Feb-23 02:09N 34°25' W 119°56'612.9
2018-Feb-23 01:40N 34°23' W 120°03'214.0
2018-Feb-23 01:30N 34°23' W 120°06'4 5.8
2018-Feb-23 00:53N 34°23' W 120°10'411.7
2018-Feb-23 00:30N 34°21' W 120°15'1 2.0
2018-Feb-23 00:00N 34°21' W 120°14'4 6.8
2018-Feb-22 23:28N 34°22' W 120°10'0 0.0
2018-Feb-22 22:58N 34°22' W 120°10'0 0.0
2018-Feb-22 22:29N 34°22' W 120°10'0 0.0
2018-Feb-22 21:16N 34°22' W 120°10'0 0.0
2018-Feb-22 20:58N 34°22' W 120°10'0 0.0
2018-Feb-22 20:30N 34°22' W 120°10'0 0.0
2018-Feb-22 19:54N 34°22' W 120°10'1 3.6
2018-Feb-22 19:30N 34°23' W 120°08'2 4.8
2018-Feb-22 19:00N 34°24' W 120°05'714.1
2018-Feb-22 18:29N 34°24' W 119°57'2 3.0
2018-Feb-22 17:56N 34°26' W 119°55'5 9.9
2018-Feb-22 17:28N 34°23' W 120°00'612.3
2018-Feb-22 17:00N 34°23' W 120°07'1 2.7
2018-Feb-22 16:30N 34°22' W 120°07'713.2
2018-Feb-22 16:00N 34°21' W 120°15'1 1.4
2018-Feb-22 15:30N 34°22' W 120°14'611.2
2018-Feb-22 15:00N 34°23' W 120°08'0 0.9
2018-Feb-22 14:30N 34°23' W 120°07'0 0.0
2018-Feb-22 14:00N 34°23' W 120°07'0 0.0
2018-Feb-22 13:30N 34°23' W 120°07'0 0.0
2018-Feb-22 12:58N 34°23' W 120°07'0 0.1
2018-Feb-22 12:26N 34°23' W 120°07'0 0.0
2018-Feb-22 12:00N 34°23' W 120°07'0 0.0
2018-Feb-22 11:30N 34°23' W 120°07'0 0.0
2018-Feb-22 11:00N 34°23' W 120°07'0 0.0
2018-Feb-22 10:30N 34°23' W 120°07'0 0.0
2018-Feb-22 10:00N 34°23' W 120°07'0 0.0
2018-Feb-22 09:30N 34°23' W 120°07'0 0.0
2018-Feb-22 09:00N 34°23' W 120°07'0 0.0
2018-Feb-22 08:30N 34°23' W 120°07'0 0.0
2018-Feb-22 07:56N 34°23' W 120°07'0 0.0
2018-Feb-22 07:29N 34°23' W 120°07'0 0.1
2018-Feb-22 06:55N 34°23' W 120°07'0 0.0
2018-Feb-22 06:28N 34°23' W 120°07'0 0.0
2018-Feb-22 05:58N 34°23' W 120°07'0 0.0
2018-Feb-22 05:27N 34°23' W 120°07'0 0.0
2018-Feb-22 05:00N 34°23' W 120°07'0 0.0
2018-Feb-22 04:30N 34°23' W 120°07'0 0.0
2018-Feb-22 04:00N 34°23' W 120°07'0 0.1
2018-Feb-22 03:21N 34°23' W 120°07'0 0.1
2018-Feb-22 02:57N 34°23' W 120°07'0 0.0
2018-Feb-22 02:27N 34°23' W 120°07'0 0.0
2018-Feb-22 02:00N 34°23' W 120°07'0 0.0
2018-Feb-22 01:12N 34°23' W 120°07'0 0.2
2018-Feb-22 01:00N 34°23' W 120°07'3 5.0
2018-Feb-22 00:26N 34°22' W 120°10'512.7
2018-Feb-22 00:00N 34°21' W 120°17'510.3
2018-Feb-21 23:30N 34°22' W 120°11'1 1.7
2018-Feb-21 23:00N 34°22' W 120°10'0 0.0
2018-Feb-21 22:26N 34°22' W 120°10'0 0.0
2018-Feb-21 21:59N 34°22' W 120°10'0 0.0
2018-Feb-21 21:28N 34°22' W 120°10'0 0.1
2018-Feb-21 21:00N 34°22' W 120°10'0 0.0
2018-Feb-21 20:29N 34°22' W 120°10'0 0.0
2018-Feb-21 19:56N 34°22' W 120°10'0 0.0
2018-Feb-21 19:26N 34°22' W 120°10'3 6.1
2018-Feb-21 19:00N 34°23' W 120°07'1013.2
2018-Feb-21 18:16N 34°26' W 119°55'0 0.6
2018-Feb-21 17:55N 34°26' W 119°55'2 3.0
2018-Feb-21 17:24N 34°24' W 119°56'613.7
2018-Feb-21 16:59N 34°23' W 120°03'3 4.2
2018-Feb-21 16:12N 34°23' W 120°07'0 0.2
2018-Feb-21 15:54N 34°23' W 120°07'0 0.0
2018-Feb-21 15:28N 34°23' W 120°07'3 5.6
2018-Feb-21 15:00N 34°23' W 120°10'2 4.6
2018-Feb-21 14:28N 34°23' W 120°07'910.1
2018-Feb-21 13:36N 34°25' W 119°57'1 5.2
2018-Feb-21 13:20N 34°26' W 119°55'4 8.7
2018-Feb-21 12:54N 34°24' W 119°59'513.3
2018-Feb-21 12:30N 34°23' W 120°06'1 2.1
2018-Feb-21 11:59N 34°23' W 120°07'0 0.1
2018-Feb-21 11:30N 34°23' W 120°07'0 0.0
2018-Feb-21 11:00N 34°23' W 120°07'0 0.0
2018-Feb-21 10:30N 34°23' W 120°07'0 0.0
2018-Feb-21 09:57N 34°23' W 120°07'0 0.0
2018-Feb-21 09:30N 34°23' W 120°07'0 0.0
2018-Feb-21 08:59N 34°23' W 120°07'0 0.0
2018-Feb-21 08:23N 34°23' W 120°07'0 0.0
2018-Feb-21 07:54N 34°23' W 120°07'0 0.0
2018-Feb-21 07:30N 34°23' W 120°07'0 0.0
2018-Feb-21 06:57N 34°23' W 120°07'0 0.1
2018-Feb-21 06:30N 34°23' W 120°07'0 0.0
2018-Feb-21 06:00N 34°23' W 120°07'0 0.0
2018-Feb-21 05:24N 34°23' W 120°07'0 0.0
2018-Feb-21 05:00N 34°23' W 120°07'0 0.0
2018-Feb-21 03:56N 34°23' W 120°07'0 0.0
2018-Feb-21 03:29N 34°23' W 120°07'0 0.1
2018-Feb-21 02:53N 34°23' W 120°07'0 0.0
2018-Feb-21 02:23N 34°23' W 120°07'0 0.7
2018-Feb-21 02:00N 34°23' W 120°07'2 4.6
2018-Feb-21 01:30N 34°22' W 120°10'1 2.7
2018-Feb-21 01:00N 34°23' W 120°08'1 2.2
2018-Feb-21 00:30N 34°23' W 120°07'6 9.2
2018-Feb-20 23:53N 34°24' W 120°00'410.2
2018-Feb-20 23:29N 34°26' W 119°55'0 0.4
2018-Feb-20 22:50N 34°26' W 119°55'0 0.0
2018-Feb-20 17:13N 34°26' W 119°55'210.2
2018-Feb-20 16:59N 34°23' W 119°57'713.8
2018-Feb-20 16:29N 34°21' W 120°05'714.0
2018-Feb-20 16:00N 34°21' W 120°13'3 6.4
2018-Feb-20 15:30N 34°21' W 120°17'713.7
2018-Feb-20 15:00N 34°23' W 120°08'1 2.3
2018-Feb-20 14:29N 34°23' W 120°07'1 2.9
2018-Feb-20 14:00N 34°24' W 120°05'612.0
2018-Feb-20 13:30N 34°24' W 119°58'3 5.2
2018-Feb-20 12:58N 34°26' W 119°55'0 0.0
2018-Feb-20 02:30N 34°26' W 119°55'0 0.0
2018-Feb-20 01:05N 34°26' W 119°55'110.8
2018-Feb-20 00:59N 34°25' W 119°56'714.0
2018-Feb-20 00:29N 34°23' W 120°04'0 0.5
2018-Feb-19 23:58N 34°23' W 120°04'711.3
2018-Feb-19 23:19N 34°26' W 119°55'5 9.2
2018-Feb-19 22:48N 34°24' W 120°01'414.2
2018-Feb-19 22:30N 34°23' W 120°06'4 7.5
2018-Feb-19 22:00N 34°23' W 120°10'0 0.4
2018-Feb-19 21:22N 34°22' W 120°10'0 0.2
2018-Feb-19 21:00N 34°22' W 120°10'0 0.0
2018-Feb-19 20:30N 34°22' W 120°10'0 0.0
2018-Feb-19 19:58N 34°22' W 120°10'0 0.0
2018-Feb-19 19:30N 34°22' W 120°10'6 9.8
2018-Feb-19 18:56N 34°23' W 120°03'710.3
2018-Feb-19 18:16N 34°26' W 119°55'0 0.1
2018-Feb-19 17:46N 34°26' W 119°55'0 0.2
2018-Feb-19 17:30N 34°26' W 119°55'2 3.9
2018-Feb-19 16:54N 34°24' W 119°57'513.3
2018-Feb-19 16:30N 34°23' W 120°03'713.4
2018-Feb-19 15:59N 34°22' W 120°12'2 3.7
2018-Feb-19 15:29N 34°21' W 120°14'5 8.9
2018-Feb-19 14:59N 34°23' W 120°09'1 3.1
2018-Feb-19 14:30N 34°23' W 120°07'0 0.0
2018-Feb-19 14:00N 34°23' W 120°07'0 0.0
2018-Feb-19 13:29N 34°23' W 120°07'0 0.0
2018-Feb-19 13:00N 34°23' W 120°07'0 0.0
2018-Feb-19 12:29N 34°23' W 120°07'0 0.0
2018-Feb-19 11:59N 34°23' W 120°07'0 0.0
2018-Feb-19 11:30N 34°23' W 120°07'0 0.0
2018-Feb-19 10:54N 34°23' W 120°07'0 0.0
2018-Feb-19 10:30N 34°23' W 120°07'0 0.0
2018-Feb-19 10:00N 34°23' W 120°07'0 0.0
2018-Feb-19 09:30N 34°23' W 120°07'0 0.0
2018-Feb-19 08:58N 34°23' W 120°07'0 0.0
2018-Feb-19 08:30N 34°23' W 120°07'0 0.0
2018-Feb-19 08:00N 34°23' W 120°07'0 0.0
2018-Feb-19 07:30N 34°23' W 120°07'0 0.0
2018-Feb-19 07:00N 34°23' W 120°07'0 0.0
2018-Feb-19 06:30N 34°23' W 120°07'0 0.0
2018-Feb-19 06:00N 34°23' W 120°07'0 0.0
2018-Feb-19 05:30N 34°23' W 120°07'0 0.0
2018-Feb-19 04:59N 34°23' W 120°07'0 0.0
2018-Feb-19 04:30N 34°23' W 120°07'0 0.0
2018-Feb-19 04:00N 34°23' W 120°07'0 0.0
2018-Feb-19 03:30N 34°23' W 120°07'0 0.0
2018-Feb-19 03:00N 34°23' W 120°07'0 0.0
2018-Feb-19 02:30N 34°23' W 120°07'0 0.1
2018-Feb-19 02:00N 34°23' W 120°07'611.6
2018-Feb-19 01:30N 34°24' W 120°00'4 6.6
2018-Feb-19 00:56N 34°25' W 119°56'613.2
2018-Feb-19 00:29N 34°23' W 120°03'4 9.2
2018-Feb-19 00:00N 34°23' W 120°08'1 2.9
2018-Feb-18 23:29N 34°22' W 120°10'0 0.0
2018-Feb-18 23:00N 34°22' W 120°10'0 0.0
2018-Feb-18 22:29N 34°22' W 120°10'0 0.0
2018-Feb-18 21:56N 34°22' W 120°10'0 0.0
2018-Feb-18 21:30N 34°22' W 120°10'0 0.0
2018-Feb-18 20:55N 34°22' W 120°10'0 0.0
2018-Feb-18 20:30N 34°22' W 120°10'0 0.0
2018-Feb-18 19:58N 34°22' W 120°10'0 0.1
2018-Feb-18 19:22N 34°22' W 120°10'2 5.2
2018-Feb-18 19:00N 34°23' W 120°08'713.4
2018-Feb-18 18:30N 34°21' W 120°15'4 7.1
2018-Feb-18 18:00N 34°22' W 120°11'1 1.9
2018-Feb-18 17:27N 34°22' W 120°10'0 0.0
2018-Feb-18 17:00N 34°22' W 120°10'0 0.0
2018-Feb-18 16:30N 34°22' W 120°10'3 5.9
2018-Feb-18 16:00N 34°21' W 120°13'0 0.7
2018-Feb-18 15:30N 34°22' W 120°13'4 8.8
2018-Feb-18 15:00N 34°23' W 120°08'1 1.4
2018-Feb-18 14:28N 34°23' W 120°07'0 0.0
2018-Feb-18 13:58N 34°23' W 120°07'0 0.0
2018-Feb-18 13:30N 34°23' W 120°07'0 0.0
2018-Feb-18 12:57N 34°23' W 120°07'0 0.0
2018-Feb-18 12:30N 34°23' W 120°07'0 0.0
2018-Feb-18 11:51N 34°23' W 120°07'0 0.0
2018-Feb-18 11:30N 34°23' W 120°07'0 0.0
2018-Feb-18 11:00N 34°23' W 120°07'0 0.0
2018-Feb-18 10:30N 34°23' W 120°07'0 0.0
2018-Feb-18 10:00N 34°23' W 120°07'0 0.1
2018-Feb-18 09:30N 34°23' W 120°07'0 0.0
2018-Feb-18 09:00N 34°23' W 120°07'0 0.0
2018-Feb-18 08:30N 34°23' W 120°07'0 0.0
2018-Feb-18 08:00N 34°23' W 120°07'0 0.0
2018-Feb-18 07:30N 34°23' W 120°07'0 0.0
2018-Feb-18 06:58N 34°23' W 120°07'0 0.0
2018-Feb-18 06:28N 34°23' W 120°07'0 0.0
2018-Feb-18 05:58N 34°23' W 120°07'0 0.0
2018-Feb-18 05:28N 34°23' W 120°07'0 0.0
2018-Feb-18 04:58N 34°23' W 120°07'0 0.0
2018-Feb-18 04:28N 34°23' W 120°07'0 0.0
2018-Feb-18 03:58N 34°23' W 120°07'0 0.0
2018-Feb-18 03:28N 34°23' W 120°07'0 0.0
2018-Feb-18 02:58N 34°23' W 120°07'0 0.0
2018-Feb-18 02:28N 34°23' W 120°07'0 0.0
2018-Feb-18 01:58N 34°23' W 120°07'0 0.0
2018-Feb-18 01:28N 34°23' W 120°07'0 0.0
2018-Feb-18 00:58N 34°23' W 120°07'0 0.0
2018-Feb-18 00:30N 34°23' W 120°07'711.4
2018-Feb-17 23:53N 34°24' W 119°59'3 7.7
2018-Feb-17 23:29N 34°26' W 119°55'0 0.1
2018-Feb-17 22:29N 34°26' W 119°55'0 0.0
2018-Feb-17 21:56N 34°26' W 119°55'0 0.0
2018-Feb-17 21:11N 34°26' W 119°55'0 0.0
2018-Feb-17 20:53N 34°26' W 119°55'0 0.0
2018-Feb-17 20:29N 34°26' W 119°55'0 0.0
2018-Feb-17 19:59N 34°26' W 119°55'0 0.0
2018-Feb-17 18:20N 34°26' W 119°55'0 0.0
2018-Feb-17 17:50N 34°26' W 119°55'3 8.4
2018-Feb-17 17:25N 34°24' W 119°59'613.3
2018-Feb-17 17:00N 34°24' W 120°06'1 2.3
2018-Feb-17 16:30N 34°23' W 120°07'510.2
2018-Feb-17 16:00N 34°22' W 120°13'0 0.7
2018-Feb-17 15:30N 34°22' W 120°14'5 9.7
2018-Feb-17 14:59N 34°23' W 120°08'1 1.1
2018-Feb-17 14:28N 34°23' W 120°07'0 0.1
2018-Feb-17 14:00N 34°23' W 120°07'713.9
2018-Feb-17 13:28N 34°24' W 119°58'2 4.4
2018-Feb-17 12:57N 34°25' W 119°56'713.1
2018-Feb-17 12:26N 34°24' W 120°04'3 6.8
2018-Feb-17 12:00N 34°23' W 120°07'0 0.0
2018-Feb-17 11:30N 34°23' W 120°07'0 0.0
2018-Feb-17 10:57N 34°23' W 120°07'0 0.0
2018-Feb-17 10:30N 34°23' W 120°07'0 0.0
2018-Feb-17 10:00N 34°23' W 120°07'0 0.0
2018-Feb-17 09:30N 34°23' W 120°07'0 0.0
2018-Feb-17 09:00N 34°23' W 120°07'0 0.0
2018-Feb-17 08:30N 34°23' W 120°07'0 0.0
2018-Feb-17 07:51N 34°23' W 120°07'0 0.0
2018-Feb-17 07:30N 34°23' W 120°07'0 0.0
2018-Feb-17 07:00N 34°23' W 120°07'0 0.0
2018-Feb-17 06:30N 34°23' W 120°07'0 0.1
2018-Feb-17 06:00N 34°23' W 120°07'0 0.1
2018-Feb-17 05:26N 34°23' W 120°07'0 0.1
2018-Feb-17 04:59N 34°23' W 120°07'0 0.0
2018-Feb-17 04:29N 34°23' W 120°07'0 0.1
2018-Feb-17 03:59N 34°23' W 120°07'0 0.0
2018-Feb-17 03:29N 34°23' W 120°07'0 0.0
2018-Feb-17 03:00N 34°23' W 120°07'0 0.0
2018-Feb-17 02:28N 34°23' W 120°07'0 0.0
2018-Feb-17 02:00N 34°23' W 120°07'0 0.1
2018-Feb-17 01:29N 34°23' W 120°07'3 4.8
2018-Feb-17 00:57N 34°23' W 120°10'610.3
2018-Feb-17 00:23N 34°21' W 120°17'510.1
2018-Feb-16 23:52N 34°22' W 120°11'1 1.7
2018-Feb-16 23:28N 34°22' W 120°10'0 0.1
2018-Feb-16 22:53N 34°22' W 120°10'0 0.9
2018-Feb-16 22:26N 34°23' W 120°10'611.3
2018-Feb-16 21:55N 34°21' W 120°17'612.6
2018-Feb-16 21:28N 34°23' W 120°10'0 0.0
2018-Feb-16 21:00N 34°22' W 120°10'0 0.0
2018-Feb-16 19:27N 34°23' W 120°10'0 0.0
2018-Feb-16 19:00N 34°23' W 120°10'0 0.0
2018-Feb-16 18:30N 34°23' W 120°10'0 0.0
2018-Feb-16 18:00N 34°23' W 120°10'0 0.1
2018-Feb-16 16:54N 34°22' W 120°10'0 0.0
2018-Feb-16 16:22N 34°22' W 120°10'512.2
2018-Feb-16 15:57N 34°21' W 120°16'1 2.3
2018-Feb-16 15:30N 34°21' W 120°15'5 9.1
2018-Feb-16 15:00N 34°23' W 120°09'2 3.9
2018-Feb-16 14:30N 34°23' W 120°07'0 0.0
2018-Feb-16 14:00N 34°23' W 120°07'0 0.0
2018-Feb-16 13:30N 34°23' W 120°07'0 0.0
2018-Feb-16 12:58N 34°23' W 120°07'0 0.0
2018-Feb-16 12:28N 34°23' W 120°07'0 0.0
2018-Feb-16 11:58N 34°23' W 120°07'0 0.0
2018-Feb-16 11:28N 34°23' W 120°07'0 0.0
2018-Feb-16 10:57N 34°23' W 120°07'0 0.0
2018-Feb-16 10:30N 34°23' W 120°07'0 0.0
2018-Feb-16 10:00N 34°23' W 120°07'0 0.0
2018-Feb-16 09:27N 34°23' W 120°07'0 0.0
2018-Feb-16 08:57N 34°23' W 120°07'0 0.0
2018-Feb-16 08:30N 34°23' W 120°07'0 0.0
2018-Feb-16 08:00N 34°23' W 120°07'0 0.0
2018-Feb-16 07:23N 34°23' W 120°07'0 0.0
2018-Feb-16 06:59N 34°23' W 120°07'0 0.1
2018-Feb-16 06:26N 34°23' W 120°07'0 0.1
2018-Feb-16 05:59N 34°23' W 120°07'0 0.0
2018-Feb-16 05:29N 34°23' W 120°07'0 0.0
2018-Feb-16 04:53N 34°23' W 120°07'0 0.0
2018-Feb-16 04:29N 34°23' W 120°07'0 0.0
2018-Feb-16 03:59N 34°23' W 120°07'0 0.0
2018-Feb-16 03:29N 34°23' W 120°07'0 0.0
2018-Feb-16 02:56N 34°23' W 120°07'0 0.0
2018-Feb-16 02:29N 34°23' W 120°07'0 0.0
2018-Feb-16 01:59N 34°23' W 120°07'0 0.0
2018-Feb-16 01:29N 34°23' W 120°07'0 0.0
2018-Feb-16 00:50N 34°23' W 120°07'1 4.5
2018-Feb-16 00:30N 34°23' W 120°05'713.8
2018-Feb-15 23:58N 34°24' W 119°57'2 0.4
2018-Feb-15 19:21N 34°26' W 119°55'0 0.2
2018-Feb-15 18:16N 34°26' W 119°55'0 0.0
2018-Feb-15 17:59N 34°26' W 119°55'510.8
2018-Feb-15 17:30N 34°24' W 120°01'610.8
2018-Feb-15 17:00N 34°23' W 120°08'612.8
2018-Feb-15 16:30N 34°21' W 120°15'1 2.7
2018-Feb-15 16:00N 34°21' W 120°17'5 9.7
2018-Feb-15 15:30N 34°22' W 120°11'3 6.5
2018-Feb-15 14:59N 34°23' W 120°07'  

Dump ship's entire track history